Terminal Aerodrome Forecast
Issued by NWS Omaha/Valley, NE

Home | Current Version | Previous Version | Text Only | Print | Product List | Glossary Off
Versions: 1 2 3 4 5 6 7 8 9 10 11 12 13 14 15 16 17 18 19 20 21 22 23 24

000
FTUS43 KOAX 151337 AAA
TAFOFK
TAF AMD
KOFK 151337Z 1514/1612 12009KT P6SM VCSH BKN070
     FM151800 15011KT P6SM VCSH BKN090
     FM160100 15010KT 6SM -SHRA VCTS BKN060CB
     FM160600 13006KT 4SM -TSRA BR OVC025CB=

USA.gov is the U.S. government's official web portal to all federal, state and local government web resources and services.